Time;durP1;ratioP1;P1;durP2;ratioP2;P2;SDS_P1;SDS_P2;PMS_P1;PMS_P2;Temp;Humidity;BMP_temperature;BMP_pressure;BME280_temperature;BME280_humidity;BME280_pressure;Samples;Min_cycle;Max_cycle;Signal;HPM_P1;HPM_P2
2022/10/31 00:00:22;;;;;;;7.77;4.93;;;9.50;99.90;9.40;100906.00;;;;4900900;28;115235;-65
2022/10/31 00:02:48;;;;;;;8.97;6.87;;;9.50;99.90;9.40;100907.00;;;;4903151;28;117323;-65
2022/10/31 00:05:14;;;;;;;7.23;5.37;;;9.50;99.90;9.30;100901.00;;;;4901360;28;110419;-67
2022/10/31 00:07:39;;;;;;;8.73;5.80;;;9.40;99.90;9.30;100912.00;;;;4898120;28;107345;-65
2022/10/31 00:10:06;;;;;;;12.47;7.07;;;9.40;99.90;9.30;100901.00;;;;4898360;28;118453;-66
2022/10/31 00:12:32;;;;;;;8.67;6.03;;;9.40;99.90;9.30;100908.00;;;;4900118;28;108249;-66
2022/10/31 00:14:57;;;;;;;11.80;7.57;;;9.40;99.90;9.20;100900.00;;;;4899691;28;110660;-66
2022/10/31 00:17:23;;;;;;;8.37;6.33;;;9.40;99.90;9.20;100902.00;;;;4899245;28;109382;-66
2022/10/31 00:19:49;;;;;;;8.13;6.77;;;9.30;99.90;9.20;100907.00;;;;4894901;28;89070;-65
2022/10/31 00:22:14;;;;;;;7.30;6.00;;;9.30;99.90;9.20;100903.00;;;;4900953;28;87680;-65
2022/10/31 00:24:40;;;;;;;6.73;4.93;;;9.30;99.90;9.10;100908.00;;;;4902257;28;110113;-65
2022/10/31 00:27:06;;;;;;;7.43;5.43;;;9.30;99.90;9.10;100911.00;;;;4898208;28;110476;-65
2022/10/31 00:29:31;;;;;;;14.13;6.53;;;9.30;99.90;9.10;100914.00;;;;4896070;28;117889;-65
2022/10/31 00:31:57;;;;;;;8.03;5.47;;;9.20;99.90;9.10;100910.00;;;;4898745;28;115603;-66
2022/10/31 00:34:23;;;;;;;4.37;3.97;;;9.20;99.90;9.00;100915.00;;;;4898132;28;110153;-65
2022/10/31 00:36:48;;;;;;;11.50;6.40;;;9.20;99.90;9.00;100922.00;;;;4899712;28;108839;-65
2022/10/31 00:39:14;;;;;;;4.27;3.87;;;9.20;99.90;9.00;100917.00;;;;4899883;28;116467;-66
2022/10/31 00:41:40;;;;;;;7.27;4.97;;;9.10;99.90;9.00;100913.00;;;;4897807;28;117887;-65
2022/10/31 00:44:06;;;;;;;10.00;5.40;;;9.10;99.90;9.00;100916.00;;;;4908113;28;87999;-65
2022/10/31 00:46:31;;;;;;;8.33;4.80;;;9.10;99.90;9.00;100914.00;;;;4909382;28;107417;-68
2022/10/31 00:48:57;;;;;;;7.47;4.67;;;9.10;99.90;8.90;100927.00;;;;4904106;28;116892;-65
2022/10/31 00:51:22;;;;;;;5.23;4.37;;;9.10;99.90;8.90;100923.00;;;;4903630;28;117446;-66
2022/10/31 00:53:48;;;;;;;6.10;4.60;;;9.00;99.90;8.90;100920.00;;;;4904583;28;109857;-66
2022/10/31 00:56:14;;;;;;;10.77;5.77;;;9.00;99.90;8.90;100921.00;;;;4903640;28;109659;-66
2022/10/31 00:58:39;;;;;;;7.80;5.07;;;9.00;99.90;8.90;100925.00;;;;4908464;28;117716;-66
2022/10/31 01:01:05;;;;;;;5.77;4.87;;;9.00;99.90;8.90;100928.00;;;;4907184;28;116483;-65
2022/10/31 01:03:32;;;;;;;9.40;5.10;;;9.00;99.90;8.90;100924.00;;;;4905957;28;88199;-65
2022/10/31 01:06:03;;;;;;;8.83;5.37;;;9.00;99.90;8.80;100932.00;;;;4906557;28;110190;-66
2022/10/31 01:08:29;;;;;;;5.90;5.13;;;9.00;99.90;8.80;100924.00;;;;4908128;28;88417;-65
2022/10/31 01:11:13;;;;;;;5.77;4.27;;;8.90;99.90;8.80;100934.00;;;;4905891;28;88428;-66
2022/10/31 01:13:39;;;;;;;6.90;4.53;;;8.90;99.90;8.80;100926.00;;;;4905276;28;88025;-65
2022/10/31 01:16:08;;;;;;;5.67;4.53;;;8.90;99.90;8.80;100934.00;;;;4906399;28;87543;-66
2022/10/31 01:18:34;;;;;;;4.17;3.77;;;9.00;99.90;8.80;100923.00;;;;4907414;28;112693;-66
2022/10/31 01:21:07;;;;;;;7.70;5.00;;;8.80;99.90;8.70;100929.00;;;;4910855;28;89996;-65
2022/10/31 01:23:33;;;;;;;7.57;4.93;;;8.80;99.90;8.70;100928.00;;;;4905460;28;104371;-65
2022/10/31 01:26:07;;;;;;;8.10;4.97;;;8.80;99.90;8.70;100929.00;;;;4906274;28;87733;-66
2022/10/31 01:28:36;;;;;;;5.50;4.40;;;8.80;99.90;8.70;100926.00;;;;4907552;28;88087;-66
2022/10/31 01:31:04;;;;;;;14.23;5.27;;;8.70;99.90;8.70;100931.00;;;;4906334;28;104247;-66
2022/10/31 01:33:30;;;;;;;6.07;3.63;;;8.80;99.90;8.60;100928.00;;;;4902456;28;88192;-65
2022/10/31 01:35:56;;;;;;;6.53;4.80;;;8.70;99.90;8.60;100931.00;;;;4903968;28;106919;-67
2022/10/31 01:38:22;;;;;;;9.10;5.00;;;8.70;99.90;8.60;100927.00;;;;4903517;28;118289;-66
2022/10/31 01:40:48;;;;;;;5.30;4.10;;;8.70;99.90;8.60;100927.00;;;;4907363;28;88729;-66
2022/10/31 01:43:14;;;;;;;9.47;4.50;;;8.70;99.90;8.60;100935.00;;;;4910799;28;104507;-67
2022/10/31 01:45:44;;;;;;;9.73;4.77;;;8.70;99.90;8.60;100932.00;;;;4906565;28;102128;-65
2022/10/31 01:48:15;;;;;;;5.17;4.33;;;8.70;99.90;8.60;100937.00;;;;4905009;28;109262;-66
2022/10/31 01:50:44;;;;;;;7.87;5.03;;;8.60;99.90;8.50;100940.00;;;;4901534;28;88794;-66
2022/10/31 01:53:11;;;;;;;6.23;4.47;;;8.60;99.90;8.50;100931.00;;;;4897774;28;110188;-66
2022/10/31 01:55:44;;;;;;;7.03;5.00;;;8.60;99.90;8.50;100933.00;;;;4902272;28;100854;-66
2022/10/31 01:58:14;;;;;;;6.80;4.53;;;8.60;99.90;8.50;100929.00;;;;4899290;28;100068;-66
2022/10/31 02:00:43;;;;;;;4.63;3.63;;;8.60;99.90;8.50;100941.00;;;;4902928;28;87714;-65
2022/10/31 02:03:09;;;;;;;6.33;4.70;;;8.60;99.90;8.50;100935.00;;;;4906125;28;88554;-65
2022/10/31 02:05:36;;;;;;;9.07;5.20;;;8.60;99.90;8.50;100941.00;;;;4901070;28;108233;-66
2022/10/31 02:08:18;;;;;;;5.83;4.23;;;8.60;99.90;8.40;100938.00;;;;4899278;28;117071;-66
2022/10/31 02:10:44;;;;;;;8.07;4.40;;;8.60;99.90;8.40;100945.00;;;;4902673;28;96771;-65
2022/10/31 02:13:12;;;;;;;7.10;5.10;;;8.50;99.90;8.40;100946.00;;;;4903414;28;110926;-66
2022/10/31 02:15:40;;;;;;;9.80;5.20;;;8.50;99.90;8.40;100951.00;;;;4901201;28;87894;-66
2022/10/31 02:18:07;;;;;;;5.73;4.53;;;8.50;99.90;8.40;100946.00;;;;4901409;28;88249;-65
2022/10/31 02:20:54;;;;;;;9.97;5.20;;;8.50;99.90;8.40;100945.00;;;;4900960;28;116634;-66
2022/10/31 02:23:34;;;;;;;9.27;4.73;;;8.50;99.90;8.40;100944.00;;;;4904028;28;87930;-66
2022/10/31 02:26:12;;;;;;;4.90;4.33;;;8.50;99.90;8.30;100949.00;;;;4905259;28;87299;-66
2022/10/31 02:29:06;;;;;;;6.60;4.57;;;8.40;99.90;8.30;100950.00;;;;4898967;28;92608;-66
2022/10/31 02:31:39;;;;;;;4.30;3.40;;;8.40;99.90;8.30;100948.00;;;;4901167;28;87775;-66
2022/10/31 02:34:53;;;;;;;5.00;4.23;;;8.40;99.90;8.20;100945.00;;;;4898825;28;88843;-67
2022/10/31 02:37:55;;;;;;;4.57;4.17;;;8.40;99.90;8.20;100945.00;;;;4899527;28;87779;-66
2022/10/31 02:40:26;;;;;;;3.77;3.13;;;8.40;99.90;8.20;100957.00;;;;4901474;28;88074;-66
2022/10/31 02:43:27;;;;;;;9.87;3.83;;;8.30;99.90;8.10;100953.00;;;;4898385;28;89367;-67
2022/10/31 02:46:20;;;;;;;5.20;4.10;;;8.30;99.90;8.20;100955.00;;;;4901435;28;87938;-68
2022/10/31 02:48:47;;;;;;;7.23;4.10;;;8.30;99.90;8.10;100959.00;;;;4902532;28;87791;-67
2022/10/31 02:51:14;;;;;;;6.00;4.20;;;8.30;99.90;8.10;100958.00;;;;4899726;28;116691;-66
2022/10/31 02:53:40;;;;;;;4.90;4.40;;;8.30;99.90;8.10;100962.00;;;;4899180;28;87980;-67
2022/10/31 02:56:15;;;;;;;10.17;4.73;;;8.20;99.90;8.10;100960.00;;;;4900361;28;87796;-67
2022/10/31 02:58:57;;;;;;;4.30;3.90;;;8.20;99.90;8.00;100960.00;;;;4900928;28;93538;-67
2022/10/31 03:01:56;;;;;;;4.70;3.97;;;8.30;99.90;8.00;100969.00;;;;4920139;28;109748;-67
2022/10/31 03:04:44;;;;;;;6.97;3.80;;;8.20;99.90;8.00;100964.00;;;;4893779;28;88090;-67
2022/10/31 03:07:59;;;;;;;5.43;4.47;;;8.20;99.90;7.90;100956.00;;;;4902440;28;87792;-67
2022/10/31 03:10:34;;;;;;;4.37;2.97;;;8.20;99.90;8.00;100972.00;;;;4894780;28;87986;-66
2022/10/31 03:13:12;;;;;;;5.53;3.63;;;8.10;99.90;7.90;100964.00;;;;4900109;28;112098;-68
2022/10/31 03:15:44;;;;;;;6.10;4.30;;;8.10;99.90;7.90;100960.00;;;;4899277;28;87925;-67
2022/10/31 03:18:17;;;;;;;6.40;3.93;;;8.10;99.90;7.90;100967.00;;;;4900822;28;87992;-67
2022/10/31 03:21:01;;;;;;;6.57;3.23;;;8.00;99.90;7.90;100967.00;;;;4903533;28;87205;-66
2022/10/31 03:23:28;;;;;;;5.00;3.07;;;8.00;99.90;7.90;100963.00;;;;4902655;28;101945;-67
2022/10/31 03:25:54;;;;;;;4.00;2.43;;;8.00;99.90;7.90;100966.00;;;;4897393;28;116138;-68
2022/10/31 03:28:29;;;;;;;4.17;3.30;;;8.00;99.90;7.80;100967.00;;;;4899236;28;89022;-67
2022/10/31 03:30:57;;;;;;;5.17;3.63;;;8.00;99.90;7.90;100967.00;;;;4901183;28;99061;-66
2022/10/31 03:33:29;;;;;;;5.43;4.70;;;8.00;99.90;7.80;100969.00;;;;4896874;28;117757;-66
2022/10/31 03:35:59;;;;;;;5.13;3.83;;;8.00;99.90;7.80;100973.00;;;;4898714;28;111368;-66
2022/10/31 03:38:25;;;;;;;7.57;4.07;;;7.90;99.90;7.80;100981.00;;;;4898466;28;101952;-66
2022/10/31 03:40:52;;;;;;;3.80;2.30;;;7.90;99.90;7.80;100976.00;;;;4901782;28;87802;-66
2022/10/31 03:43:28;;;;;;;5.83;3.40;;;7.90;99.90;7.80;100980.00;;;;4901625;28;117355;-66
2022/10/31 03:45:55;;;;;;;6.67;3.50;;;7.90;99.90;7.70;100973.00;;;;4897138;28;104977;-67
2022/10/31 03:48:21;;;;;;;4.93;3.77;;;7.90;99.90;7.70;100982.00;;;;4896578;28;110429;-67
2022/10/31 03:51:10;;;;;;;4.20;2.83;;;7.80;99.90;7.70;100988.00;;;;4901018;28;98289;-67
2022/10/31 03:53:59;;;;;;;3.93;3.17;;;7.80;99.90;7.70;100993.00;;;;4896781;28;108983;-67
2022/10/31 03:56:39;;;;;;;7.23;3.43;;;8.00;99.90;7.70;100990.00;;;;4900131;28;110007;-67
2022/10/31 03:59:17;;;;;;;4.13;3.70;;;7.80;99.90;7.60;100984.00;;;;4895393;28;103901;-67
2022/10/31 04:01:49;;;;;;;7.03;4.10;;;7.80;99.90;7.60;100992.00;;;;4897084;28;95336;-66
2022/10/31 04:04:15;;;;;;;3.53;2.67;;;7.80;99.90;7.60;100993.00;;;;4896266;28;87894;-68
2022/10/31 04:06:44;;;;;;;5.53;4.07;;;7.70;99.90;7.60;100998.00;;;;4900733;28;115439;-67
2022/10/31 04:09:10;;;;;;;4.60;3.60;;;7.70;99.90;7.60;100993.00;;;;4898604;28;110424;-67
2022/10/31 04:11:47;;;;;;;4.80;3.50;;;7.70;99.90;7.60;100991.00;;;;4900354;28;109763;-67
2022/10/31 04:14:12;;;;;;;6.03;3.37;;;7.70;99.90;7.60;100991.00;;;;4898696;28;107740;-67
2022/10/31 04:16:42;;;;;;;3.43;3.17;;;7.90;99.90;7.60;100999.00;;;;4899333;28;117923;-67
2022/10/31 04:19:08;;;;;;;8.93;4.00;;;7.70;99.90;7.60;100999.00;;;;4898328;28;96492;-67
2022/10/31 04:21:34;;;;;;;4.27;3.60;;;7.70;99.90;7.50;100996.00;;;;4896293;28;87904;-66
2022/10/31 04:23:59;;;;;;;3.73;3.33;;;7.80;99.90;7.50;101004.00;;;;4899549;28;118048;-68
2022/10/31 04:26:25;;;;;;;10.90;3.77;;;7.60;99.90;7.50;101002.00;;;;4901505;28;115925;-66
2022/10/31 04:28:51;;;;;;;6.13;3.27;;;7.60;99.90;7.50;100994.00;;;;4898593;28;109868;-67
2022/10/31 04:31:17;;;;;;;3.67;3.03;;;7.60;99.90;7.50;100990.00;;;;4909971;28;109437;-67
2022/10/31 04:33:43;;;;;;;4.20;3.33;;;7.60;99.90;7.50;100992.00;;;;4900086;28;88290;-66
2022/10/31 04:36:09;;;;;;;6.20;3.87;;;7.60;99.90;7.50;100992.00;;;;4898867;28;101551;-66
2022/10/31 04:38:34;;;;;;;5.43;3.80;;;7.60;99.90;7.50;100997.00;;;;4901715;28;101378;-67
2022/10/31 04:41:00;;;;;;;4.93;3.70;;;7.60;99.90;7.40;100995.00;;;;4903250;28;108564;-67
2022/10/31 04:43:26;;;;;;;4.60;3.27;;;7.60;99.90;7.40;100994.00;;;;4896020;28;118695;-67
2022/10/31 04:45:51;;;;;;;6.80;3.87;;;7.80;99.90;7.40;100991.00;;;;4898967;28;119009;-67
2022/10/31 04:48:17;;;;;;;7.83;3.43;;;7.60;99.90;7.40;101005.00;;;;4900858;28;110713;-67
2022/10/31 04:50:43;;;;;;;6.07;4.07;;;7.60;99.90;7.40;101003.00;;;;4899817;28;108395;-67
2022/10/31 04:53:09;;;;;;;4.27;3.60;;;7.70;99.90;7.40;101011.00;;;;4899752;28;117804;-68
2022/10/31 04:55:36;;;;;;;4.03;3.37;;;7.50;99.90;7.40;101000.00;;;;4897420;28;115272;-67
2022/10/31 04:58:01;;;;;;;4.73;3.37;;;7.50;99.90;7.40;100996.00;;;;4894425;28;101453;-67
2022/10/31 05:00:28;;;;;;;3.97;2.87;;;7.50;99.90;7.40;101004.00;;;;4901132;28;87184;-67
2022/10/31 05:02:56;;;;;;;3.30;2.57;;;7.50;99.90;7.40;101005.00;;;;4900130;28;88043;-68
2022/10/31 05:05:26;;;;;;;4.33;2.47;;;7.50;99.90;7.40;101006.00;;;;4898318;28;110019;-67
2022/10/31 05:07:52;;;;;;;5.63;3.40;;;7.50;99.90;7.30;101012.00;;;;4900601;28;88845;-68
2022/10/31 05:10:22;;;;;;;2.80;2.50;;;7.50;99.90;7.30;101019.00;;;;4900359;28;97231;-67
2022/10/31 05:13:00;;;;;;;4.63;2.90;;;7.50;99.90;7.30;101013.00;;;;4898841;28;89175;-67
2022/10/31 05:15:27;;;;;;;4.53;3.00;;;7.60;99.90;7.30;101023.00;;;;4899159;28;87819;-68
2022/10/31 05:17:54;;;;;;;2.93;2.63;;;7.50;99.90;7.30;101015.00;;;;4897738;28;109964;-67
2022/10/31 05:20:23;;;;;;;3.33;3.03;;;7.50;99.90;7.30;101011.00;;;;4899568;28;102833;-68
2022/10/31 05:22:51;;;;;;;3.87;2.93;;;7.40;99.90;7.30;101014.00;;;;4901256;28;103112;-68
2022/10/31 05:25:19;;;;;;;3.43;3.13;;;7.40;99.90;7.30;101008.00;;;;4903510;28;88517;-67
2022/10/31 05:27:47;;;;;;;5.07;3.20;;;7.90;99.90;7.20;101016.00;;;;4899001;28;87788;-67
2022/10/31 05:30:17;;;;;;;6.10;2.87;;;7.40;99.90;7.20;101012.00;;;;4902593;28;87844;-67
2022/10/31 05:32:46;;;;;;;5.13;3.60;;;7.40;99.90;7.20;101008.00;;;;4900280;28;111450;-68
2022/10/31 05:35:16;;;;;;;6.30;2.67;;;7.80;99.90;7.20;101013.00;;;;4900871;28;89604;-67
2022/10/31 05:37:43;;;;;;;4.93;2.23;;;7.30;99.90;7.20;101007.00;;;;4903326;28;87921;-67
2022/10/31 05:40:11;;;;;;;7.33;2.47;;;7.30;99.90;7.20;101008.00;;;;4905101;28;99774;-67
2022/10/31 05:42:39;;;;;;;4.77;2.67;;;7.30;99.90;7.10;101012.00;;;;4899917;28;89188;-67
2022/10/31 05:45:08;;;;;;;3.80;3.10;;;7.20;99.90;7.10;101013.00;;;;4905746;28;88190;-67
2022/10/31 05:47:33;;;;;;;5.67;3.23;;;7.20;99.90;7.10;101006.00;;;;4900918;28;95785;-67
2022/10/31 05:49:59;;;;;;;6.17;3.10;;;7.20;99.90;7.10;101009.00;;;;4900253;28;108652;-67
2022/10/31 05:52:24;;;;;;;7.10;3.63;;;7.20;99.90;7.10;101010.00;;;;4902940;28;116966;-68
2022/10/31 05:54:50;;;;;;;3.63;3.33;;;7.20;99.90;7.00;101018.00;;;;4900265;28;117557;-68
2022/10/31 05:57:16;;;;;;;6.17;3.30;;;7.20;99.90;7.00;101017.00;;;;4904149;28;97489;-67
2022/10/31 05:59:41;;;;;;;3.97;3.00;;;7.20;99.90;7.00;101023.00;;;;4902177;28;108065;-68
2022/10/31 06:02:07;;;;;;;2.83;2.53;;;7.20;99.90;7.00;101023.00;;;;4900176;28;118506;-68
2022/10/31 06:04:33;;;;;;;4.20;2.63;;;7.20;99.90;7.00;101026.00;;;;4902585;28;116862;-68
2022/10/31 06:06:58;;;;;;;4.23;3.33;;;7.10;99.90;7.00;101028.00;;;;4905386;28;111338;-67
2022/10/31 06:09:24;;;;;;;3.70;2.73;;;7.10;99.90;7.00;101028.00;;;;4903334;28;108156;-67
2022/10/31 06:11:50;;;;;;;2.83;2.53;;;7.10;99.90;7.00;101034.00;;;;4900189;28;91466;-67
2022/10/31 06:14:15;;;;;;;10.97;3.03;;;7.60;99.90;7.00;101037.00;;;;4902936;28;89004;-68
2022/10/31 06:16:41;;;;;;;8.20;2.47;;;7.10;99.90;7.00;101036.00;;;;4900624;28;110289;-67
2022/10/31 06:19:07;;;;;;;3.17;2.37;;;7.50;99.90;7.00;101037.00;;;;4904044;28;108137;-67
2022/10/31 06:21:32;;;;;;;4.13;3.00;;;7.20;99.90;7.00;101041.00;;;;4904355;28;118107;-67
2022/10/31 06:23:58;;;;;;;3.77;2.70;;;7.10;99.90;7.10;101040.00;;;;4900473;28;117971;-67
2022/10/31 06:26:24;;;;;;;6.10;3.13;;;7.20;99.90;7.10;101044.00;;;;4903289;28;98599;-67
2022/10/31 06:28:49;;;;;;;4.70;2.27;;;7.20;99.90;7.10;101040.00;;;;4902492;28;95764;-67
2022/10/31 06:31:15;;;;;;;3.30;2.73;;;7.20;99.90;7.20;101040.00;;;;4897916;28;114291;-67
2022/10/31 06:33:42;;;;;;;5.93;3.63;;;7.30;99.90;7.20;101054.00;;;;4896537;28;116278;-68
2022/10/31 06:36:08;;;;;;;2.80;2.03;;;7.70;99.90;7.30;101053.00;;;;4895555;28;87960;-67
2022/10/31 06:38:34;;;;;;;3.80;3.10;;;7.40;99.90;7.40;101057.00;;;;4898277;28;94163;-67
2022/10/31 06:41:06;;;;;;;4.63;3.13;;;7.50;99.90;7.50;101064.00;;;;4900743;28;117766;-67
2022/10/31 06:43:32;;;;;;;3.20;2.87;;;7.60;99.90;7.70;101058.00;;;;4902361;28;87802;-68
2022/10/31 06:46:02;;;;;;;4.10;2.80;;;7.70;99.90;7.90;101071.00;;;;4894650;28;102086;-67
2022/10/31 06:48:27;;;;;;;3.50;2.80;;;7.90;99.90;8.10;101072.00;;;;4897083;28;88064;-67
2022/10/31 06:50:53;;;;;;;3.27;2.33;;;8.20;99.90;8.40;101064.00;;;;4897573;28;117615;-67
2022/10/31 06:53:19;;;;;;;5.10;3.83;;;8.40;99.90;8.60;101081.00;;;;4892143;28;117320;-66
2022/10/31 06:55:44;;;;;;;6.00;2.97;;;8.60;99.90;8.90;101074.00;;;;4894458;28;108481;-66
2022/10/31 06:58:11;;;;;;;5.73;3.93;;;8.80;99.90;9.10;101079.00;;;;4894945;28;108129;-66
2022/10/31 07:00:36;;;;;;;3.10;2.20;;;9.10;99.90;9.40;101085.00;;;;4894750;28;108415;-66
2022/10/31 07:03:06;;;;;;;2.53;2.23;;;9.30;99.90;9.60;101094.00;;;;4897105;28;116404;-66
2022/10/31 07:05:32;;;;;;;2.83;2.10;;;9.60;99.90;9.90;101091.00;;;;4894215;28;88281;-66
2022/10/31 07:08:02;;;;;;;3.23;2.70;;;9.80;99.90;10.20;101089.00;;;;4892678;28;97269;-67
2022/10/31 07:10:31;;;;;;;3.87;2.63;;;10.10;99.90;10.50;101092.00;;;;4895250;28;89974;-66
2022/10/31 07:13:02;;;;;;;5.70;2.60;;;10.40;99.90;10.80;101101.00;;;;4895429;28;89775;-67
2022/10/31 07:15:32;;;;;;;8.27;3.10;;;10.70;99.90;11.10;101096.00;;;;4898139;28;101763;-66
2022/10/31 07:18:06;;;;;;;4.03;2.80;;;11.00;99.90;11.40;101107.00;;;;4894975;28;94159;-67
2022/10/31 07:20:32;;;;;;;4.73;3.00;;;11.30;99.90;11.60;101102.00;;;;4893626;28;107282;-66
2022/10/31 07:22:58;;;;;;;5.20;2.87;;;11.60;99.90;11.90;101102.00;;;;4897727;28;115009;-66
2022/10/31 07:25:24;;;;;;;4.57;3.43;;;11.80;99.90;12.20;101099.00;;;;4903428;28;87836;-66
2022/10/31 07:27:50;;;;;;;5.57;2.23;;;12.10;99.90;12.40;101106.00;;;;4894577;28;86932;-65
2022/10/31 07:30:18;;;;;;;7.93;3.47;;;12.40;99.90;12.70;101099.00;;;;4895446;28;95843;-66
2022/10/31 07:32:46;;;;;;;6.33;3.17;;;12.70;99.90;13.10;101106.00;;;;4895832;28;88502;-65
2022/10/31 07:35:23;;;;;;;5.03;2.77;;;13.00;99.90;13.40;101114.00;;;;4895951;28;88745;-66
2022/10/31 07:37:50;;;;;;;6.77;3.50;;;13.60;99.90;13.70;101111.00;;;;4900086;28;87663;-66
2022/10/31 07:40:17;;;;;;;7.13;2.57;;;13.60;99.90;14.00;101117.00;;;;4897609;28;96109;-66
2022/10/31 07:42:46;;;;;;;5.50;2.30;;;13.90;99.90;14.30;101109.00;;;;4893549;28;89033;-65
2022/10/31 07:45:16;;;;;;;5.00;3.07;;;14.20;99.90;14.60;101115.00;;;;4901255;28;100471;-65
2022/10/31 07:47:43;;;;;;;3.87;2.90;;;14.50;99.90;15.00;101122.00;;;;4894727;28;87918;-65
2022/10/31 07:50:12;;;;;;;5.20;3.13;;;14.80;99.90;15.30;101115.00;;;;4895918;28;89282;-65
2022/10/31 07:52:38;;;;;;;5.37;2.57;;;15.10;99.90;15.70;101117.00;;;;4895687;28;101674;-65
2022/10/31 07:55:05;;;;;;;3.27;2.17;;;15.50;99.90;16.00;101124.00;;;;4897179;28;105112;-65
2022/10/31 07:57:31;;;;;;;2.78;2.40;;;15.80;99.90;16.40;101123.00;;;;4899679;28;88039;-65
2022/10/31 07:59:57;;;;;;;7.43;2.95;;;16.10;99.90;16.70;101121.00;;;;4899213;28;118180;-65
2022/10/31 08:02:23;;;;;;;4.57;2.08;;;16.50;99.90;17.00;101119.00;;;;4894828;28;118195;-65
2022/10/31 08:04:49;;;;;;;3.97;2.42;;;16.80;99.90;17.30;101127.00;;;;4894735;28;87714;-65
2022/10/31 08:07:15;;;;;;;6.85;2.97;;;17.10;99.90;17.70;101129.00;;;;4900590;28;109317;-65
2022/10/31 08:09:41;;;;;;;3.17;2.10;;;17.40;99.90;18.00;101130.00;;;;4896842;28;104304;-66
2022/10/31 08:12:06;;;;;;;4.38;3.17;;;17.70;99.90;18.30;101136.00;;;;4892972;28;117017;-65
2022/10/31 08:14:32;;;;;;;3.67;2.50;;;18.00;99.90;18.60;101132.00;;;;4893735;28;109417;-65
2022/10/31 08:16:58;;;;;;;3.10;2.47;;;18.40;99.90;19.00;101136.00;;;;4895669;28;108315;-65
2022/10/31 08:19:23;;;;;;;5.60;2.78;;;18.70;99.90;19.30;101130.00;;;;4896665;28;116988;-65
2022/10/31 08:21:54;;;;;;;5.50;1.85;;;19.00;99.90;19.60;101128.00;;;;4893460;28;116094;-65
2022/10/31 08:24:23;;;;;;;2.97;2.42;;;19.30;99.90;20.00;101130.00;;;;4899852;28;89823;-65
2022/10/31 08:26:49;;;;;;;3.00;2.35;;;19.70;99.90;20.20;101142.00;;;;4895801;28;108846;-65
2022/10/31 08:29:15;;;;;;;2.78;2.58;;;19.90;99.90;20.30;101138.00;;;;4898112;28;118270;-65
2022/10/31 08:31:42;;;;;;;4.80;2.78;;;20.10;99.90;20.50;101138.00;;;;4893505;28;107011;-65
2022/10/31 08:34:07;;;;;;;4.05;1.52;;;20.20;99.90;20.70;101152.00;;;;4897789;28;87984;-65
2022/10/31 08:36:33;;;;;;;2.50;1.92;;;20.50;99.90;20.90;101146.00;;;;4894596;28;108787;-65
2022/10/31 08:39:00;;;;;;;2.80;2.30;;;20.70;99.90;21.00;101154.00;;;;4896041;28;98983;-65
2022/10/31 08:41:25;;;;;;;2.30;2.10;;;20.80;99.90;21.20;101151.00;;;;4900233;28;109000;-65
2022/10/31 08:43:51;;;;;;;2.80;1.88;;;20.90;99.90;21.40;101148.00;;;;4901518;28;111878;-65
2022/10/31 08:46:17;;;;;;;2.13;1.38;;;21.20;99.90;21.70;101146.00;;;;4894363;28;109995;-65
2022/10/31 08:48:43;;;;;;;2.35;1.75;;;21.50;99.90;22.10;101153.00;;;;4895531;28;117882;-65
2022/10/31 08:51:10;;;;;;;2.00;1.15;;;21.70;99.90;22.40;101148.00;;;;4899366;28;117224;-64
2022/10/31 08:53:36;;;;;;;3.08;1.85;;;22.10;99.90;22.70;101142.00;;;;4897173;28;87839;-64
2022/10/31 08:56:01;;;;;;;2.28;1.77;;;22.40;99.90;23.00;101141.00;;;;4895475;28;87839;-65
2022/10/31 08:58:27;;;;;;;2.17;1.33;;;22.60;98.80;23.10;101158.00;;;;4894605;28;89013;-64
2022/10/31 09:00:56;;;;;;;1.67;1.58;;;22.90;97.70;23.20;101144.00;;;;4895455;28;118516;-65
2022/10/31 09:03:25;;;;;;;4.03;2.10;;;23.00;96.30;23.50;101151.00;;;;4899260;28;87753;-66
2022/10/31 09:05:56;;;;;;;2.22;1.88;;;23.20;95.30;23.70;101151.00;;;;4900084;28;87036;-66
2022/10/31 09:08:22;;;;;;;4.90;1.92;;;23.40;94.30;23.80;101147.00;;;;4896754;28;88086;-65
2022/10/31 09:10:48;;;;;;;11.10;2.40;;;23.50;93.20;24.00;101150.00;;;;4898564;28;102887;-65
2022/10/31 09:13:23;;;;;;;3.35;1.70;;;23.70;92.50;24.20;101148.00;;;;4896788;28;106651;-65
2022/10/31 09:15:50;;;;;;;2.92;1.88;;;23.90;91.90;24.30;101153.00;;;;4896834;28;99428;-65
2022/10/31 09:18:19;;;;;;;1.65;1.52;;;24.00;90.80;24.40;101152.00;;;;4901530;28;88291;-65
2022/10/31 09:20:46;;;;;;;5.78;2.28;;;24.10;89.30;24.50;101152.00;;;;4900236;28;88450;-65
2022/10/31 09:23:18;;;;;;;4.60;2.75;;;24.20;87.40;24.60;101151.00;;;;4904558;28;87845;-65
2022/10/31 09:25:45;;;;;;;4.70;2.10;;;24.30;87.20;24.70;101156.00;;;;4897803;28;87885;-65
2022/10/31 09:28:22;;;;;;;3.30;2.50;;;24.40;85.60;24.90;101157.00;;;;4898909;28;89451;-65
2022/10/31 09:30:51;;;;;;;3.28;2.28;;;24.60;85.00;25.20;101153.00;;;;4895263;28;88579;-65
2022/10/31 09:33:17;;;;;;;2.00;1.88;;;24.80;82.30;25.20;101156.00;;;;4898130;28;87588;-65
2022/10/31 09:35:43;;;;;;;4.20;2.20;;;24.90;81.50;25.30;101157.00;;;;4897091;28;87951;-65
2022/10/31 09:38:14;;;;;;;2.58;2.38;;;25.00;79.80;25.40;101164.00;;;;4900438;28;118836;-66
2022/10/31 09:40:46;;;;;;;3.83;2.33;;;25.10;79.10;25.50;101171.00;;;;4903093;28;89402;-65
2022/10/31 09:43:39;;;;;;;5.47;2.15;;;25.20;78.40;25.50;101168.00;;;;4892231;28;88191;-66
2022/10/31 09:46:16;;;;;;;6.47;2.90;;;25.30;77.00;25.70;101166.00;;;;4893598;28;100851;-65
2022/10/31 09:49:13;;;;;;;3.78;2.65;;;25.30;75.70;25.80;101174.00;;;;4895802;28;104136;-65
2022/10/31 09:52:02;;;;;;;7.13;2.47;;;25.50;75.70;26.00;101169.00;;;;4892733;28;106130;-65
2022/10/31 09:54:38;;;;;;;4.38;2.35;;;25.60;74.90;26.20;101162.00;;;;4895684;28;91023;-65
2022/10/31 09:57:12;;;;;;;4.60;2.65;;;25.80;72.00;26.00;101165.00;;;;4893401;28;87469;-65
2022/10/31 09:59:40;;;;;;;5.88;2.60;;;25.70;69.50;25.80;101171.00;;;;4897971;28;88228;-65
2022/10/31 10:02:37;;;;;;;5.75;2.80;;;25.60;69.60;25.90;101176.00;;;;4898642;28;108359;-66
2022/10/31 10:05:31;;;;;;;1.80;1.70;;;25.60;71.00;26.20;101170.00;;;;4898752;28;98524;-66
2022/10/31 10:08:31;;;;;;;5.90;2.50;;;25.70;70.90;26.40;101173.00;;;;4890551;28;87898;-65
2022/10/31 10:11:37;;;;;;;4.43;2.70;;;26.00;69.80;26.50;101170.00;;;;4898766;28;87870;-66
2022/10/31 10:14:11;;;;;;;4.15;2.85;;;26.10;69.20;26.70;101173.00;;;;4895527;28;110315;-65
2022/10/31 10:17:19;;;;;;;5.30;2.90;;;26.30;68.30;26.80;101162.00;;;;4898526;28;87839;-65
2022/10/31 10:20:31;;;;;;;11.20;2.70;;;26.40;67.60;26.80;101163.00;;;;4896541;28;101923;-65
2022/10/31 10:23:47;;;;;;;3.00;1.88;;;26.40;66.70;26.70;101167.00;;;;4904267;28;88066;-65
2022/10/31 10:26:30;;;;;;;4.88;2.00;;;26.30;65.10;26.80;101172.00;;;;4894558;28;88294;-65
2022/10/31 10:29:17;;;;;;;3.45;1.77;;;26.40;65.10;26.80;101169.00;;;;4895512;28;105300;-65
2022/10/31 10:31:45;;;;;;;2.25;1.88;;;26.40;62.50;26.40;101171.00;;;;4890589;28;103379;-64
2022/10/31 10:34:37;;;;;;;5.10;1.80;;;26.10;61.00;26.20;101164.00;;;;4899608;28;90290;-65
2022/10/31 10:37:23;;;;;;;8.60;2.70;;;25.90;62.80;26.10;101160.00;;;;4887751;28;88357;-65
2022/10/31 10:39:56;;;;;;;2.67;1.75;;;25.80;62.90;26.10;101163.00;;;;4897375;28;95824;-65
2022/10/31 10:48:15;;;;;;;2.42;1.83;;;25.70;62.50;26.10;101164.00;;;;4892534;28;87854;-65
2022/10/31 10:50:50;;;;;;;7.25;2.55;;;25.70;62.30;26.20;101155.00;;;;4899256;28;87738;-66
2022/10/31 10:53:35;;;;;;;3.92;2.20;;;25.80;62.70;26.20;101159.00;;;;4894942;28;99868;-67
2022/10/31 10:56:17;;;;;;;2.90;2.33;;;25.80;61.80;26.30;101157.00;;;;4900920;28;88038;-66
2022/10/31 10:58:44;;;;;;;2.80;1.73;;;25.80;62.40;26.30;101150.00;;;;4898034;28;88575;-66
2022/10/31 11:01:13;;;;;;;4.30;2.28;;;25.90;62.00;26.50;101145.00;;;;4896245;28;88794;-66
2022/10/31 11:03:39;;;;;;;2.20;1.90;;;25.90;62.40;26.60;101147.00;;;;4900612;28;88293;-66
2022/10/31 11:06:25;;;;;;;4.75;2.47;;;26.10;62.50;26.70;101145.00;;;;4900243;28;89012;-66
2022/10/31 11:08:51;;;;;;;4.72;1.83;;;26.20;61.70;26.90;101141.00;;;;4894865;28;87767;-66
2022/10/31 11:11:16;;;;;;;5.25;2.33;;;26.30;62.20;27.20;101138.00;;;;4897382;28;93033;-66
2022/10/31 11:13:46;;;;;;;5.30;2.47;;;26.50;62.20;27.50;101142.00;;;;4898609;28;109025;-68